Broadview Heights, Ohio
Current Conditions -  °F | °C
As of 7:21 PM on Thursday 27 Nov 2014 (Local Time) from KCLE Reporting Station
Moderate Snow Moderate Snow  
Wind Chill: 21°   Ceiling: 800
Heat Index: 30°   Visibility: 0.5mi
Dew Point: 27°   Wind: 10mph
Humidity: 88%   Direction: 250°WSW
Pressure: 30.24"   Gusts: NA
Location:  41.33°N, 81.68°W
Report Text: KCLE 280021Z 25009KT 1/2SM SN FZFG VV008 M01/M03 A3024 RMK AO2 P0002 T10111028 $
Loading
Personal Weather Stations






























Interactive Weather Map New forecast layout! Learn more

10-Day Weather Forecast

Advertisements
Track Severe Weather on mobile